createdAt,value
2018-07-06T00:03:21.754Z,64.29
2018-07-06T00:09:25.931Z,61.21
2018-07-06T00:21:39.549Z,62.59
2018-07-06T00:24:38.125Z,61.93
2018-07-06T00:33:51.541Z,64.82
2018-07-06T00:36:52.425Z,63.66
2018-07-06T00:42:51.508Z,63.51
2018-07-06T00:48:51.587Z,61.21
2018-07-06T00:54:53.492Z,67.53
2018-07-06T00:58:07.526Z,69.14
2018-07-06T01:06:20.675Z,68.19
2018-07-06T01:09:35.664Z,68.01
2018-07-06T01:15:36.805Z,62.99
2018-07-06T01:18:34.806Z,62.23
2018-07-06T01:31:07.267Z,62.77
2018-07-06T01:58:25.316Z,64.86
2018-07-06T02:01:23.869Z,64.78
2018-07-06T02:07:39.765Z,64.45
2018-07-06T02:10:50.231Z,64.92
2018-07-06T02:13:50.249Z,62.31
2018-07-06T08:30:56.325Z,70.89
2018-07-06T08:33:41.240Z,69.03
2018-07-06T08:38:48.376Z,69.21
2018-07-06T08:41:24.547Z,67.84
2018-07-06T08:43:54.704Z,68.82
2018-07-06T08:46:32.422Z,66.61
2018-07-06T08:49:09.215Z,66.90
2018-07-06T08:51:45.932Z,66.61
2018-07-06T08:54:20.806Z,66.51
2018-07-06T08:56:50.933Z,67.77
2018-07-06T08:59:21.456Z,66.75
2018-07-06T09:01:52.263Z,66.64
2018-07-06T09:04:24.049Z,65.66
2018-07-06T09:06:59.128Z,66.13
2018-07-06T09:09:38.503Z,66.64
2018-07-06T09:12:18.516Z,64.82
2018-07-06T09:15:01.782Z,66.21
2018-07-06T09:20:34.673Z,65.01
2018-07-06T09:23:39.226Z,63.83
2018-07-06T09:39:51.199Z,62.35
2018-07-06T09:57:16.681Z,60.93
2018-07-06T10:18:46.385Z,59.36
2018-07-06T10:28:01.368Z,60.16
2018-07-06T10:37:00.024Z,58.51
2018-07-06T10:42:10.236Z,59.07
2018-07-06T11:00:12.288Z,53.60
2018-07-06T11:02:44.157Z,53.72
2018-07-06T11:13:48.749Z,54.12
2018-07-06T11:16:19.562Z,52.74
2018-07-06T11:18:49.720Z,54.45
2018-07-06T11:21:19.696Z,53.05
2018-07-06T11:23:49.564Z,52.49
2018-07-06T11:29:48.481Z,53.22
2018-07-06T14:11:34.177Z,43.86
2018-07-06T14:14:07.941Z,42.72
2018-07-06T14:20:14.814Z,43.74
2018-07-06T14:22:53.297Z,43.08
2018-07-06T14:25:24.423Z,42.80
2018-07-06T14:27:54.979Z,42.64
2018-07-06T14:30:29.430Z,42.47
2018-07-06T14:33:02.196Z,42.48
2018-07-06T14:35:32.423Z,42.77
2018-07-06T14:38:08.746Z,43.95
2018-07-06T14:41:17.949Z,42.48
2018-07-06T14:43:57.285Z,42.69
2018-07-06T14:46:29.280Z,41.56
2018-07-06T14:49:01.237Z,40.94
2018-07-06T14:51:32.801Z,41.68
2018-07-06T14:54:02.771Z,40.60
2018-07-06T14:56:33.771Z,41.35
2018-07-06T14:59:03.834Z,40.46
2018-07-06T15:01:34.006Z,42.31
2018-07-06T15:04:05.994Z,39.92
2018-07-06T15:06:36.982Z,41.17
2018-07-06T15:09:09.912Z,40.55
2018-07-06T15:11:43.138Z,40.34
2018-07-06T15:14:17.308Z,40.59
2018-07-06T15:16:52.317Z,41.45
2018-07-06T15:19:31.355Z,40.84
2018-07-06T15:22:01.907Z,39.39
2018-07-06T15:24:33.792Z,40.74
2018-07-06T15:27:06.280Z,40.38
2018-07-06T15:29:39.214Z,40.80
2018-07-06T15:32:10.230Z,40.40
2018-07-06T15:34:44.772Z,42.32
2018-07-06T15:37:17.614Z,40.74
2018-07-06T15:39:54.730Z,41.27
2018-07-06T15:42:25.774Z,40.15
2018-07-06T15:44:59.494Z,39.83
2018-07-06T15:47:33.766Z,40.91
2018-07-06T15:50:03.689Z,40.47
2018-07-06T15:52:34.428Z,39.85
2018-07-06T15:55:05.682Z,39.76
2018-07-06T15:57:38.058Z,40.01
2018-07-06T16:00:10.635Z,40.72
2018-07-06T16:02:42.359Z,40.45
2018-07-06T16:05:14.177Z,41.25
2018-07-06T16:07:46.828Z,39.67
2018-07-06T16:10:17.335Z,40.34
2018-07-06T16:12:47.732Z,41.06
2018-07-06T16:15:18.390Z,41.32
2018-07-06T16:17:48.929Z,40.67
2018-07-06T16:20:21.022Z,41.63
2018-07-06T16:22:51.473Z,40.51
2018-07-06T16:25:24.693Z,40.64
2018-07-06T16:27:56.344Z,41.32
2018-07-06T16:30:28.418Z,41.48
2018-07-06T16:33:00.266Z,41.01
2018-07-06T16:35:30.097Z,41.66
2018-07-06T16:38:01.643Z,41.98
2018-07-06T16:40:32.149Z,41.86
2018-07-06T16:43:01.990Z,41.22
2018-07-06T16:45:32.356Z,42.13
2018-07-06T16:48:02.515Z,41.65
2018-07-06T16:50:32.694Z,42.72
2018-07-06T16:53:02.793Z,41.29
2018-07-06T16:55:32.924Z,42.50
2018-07-06T16:58:03.265Z,42.57
2018-07-06T17:00:33.595Z,42.07
2018-07-06T17:03:03.523Z,41.54
2018-07-06T17:05:33.562Z,42.40
2018-07-06T17:08:03.623Z,41.43
2018-07-06T17:10:33.198Z,41.58
2018-07-06T17:13:03.266Z,41.55
2018-07-06T17:15:33.385Z,41.51
2018-07-06T17:18:03.283Z,41.41
2018-07-06T17:20:33.372Z,41.93
2018-07-06T17:23:03.593Z,42.53
2018-07-06T17:25:33.655Z,41.92
2018-07-06T17:28:03.999Z,42.61
2018-07-06T17:30:34.049Z,42.45
2018-07-06T17:33:04.111Z,42.95
2018-07-06T17:35:34.092Z,42.74
2018-07-06T17:38:04.213Z,43.52
2018-07-06T17:40:34.447Z,44.05
2018-07-06T17:43:04.407Z,42.87
2018-07-06T17:45:34.459Z,44.40
2018-07-06T17:48:04.271Z,42.98
2018-07-06T17:50:34.251Z,42.42
2018-07-06T17:53:04.239Z,42.91
2018-07-06T17:55:34.199Z,42.57
2018-07-06T17:58:04.531Z,42.31
2018-07-06T18:00:34.632Z,42.04
2018-07-06T18:03:04.796Z,42.93
2018-07-06T18:05:34.599Z,43.47
2018-07-06T18:08:04.439Z,43.29
2018-07-06T18:10:34.475Z,43.13
2018-07-06T18:13:04.035Z,43.41
2018-07-06T18:15:34.087Z,43.50
2018-07-06T18:18:04.049Z,43.64
2018-07-06T18:20:34.590Z,44.93
2018-07-06T18:23:05.469Z,44.01
2018-07-06T18:25:36.326Z,44.55
2018-07-06T18:28:07.270Z,44.11
2018-07-06T18:30:37.945Z,44.06
2018-07-06T18:33:09.792Z,43.83
2018-07-06T18:35:39.590Z,44.33
2018-07-06T18:38:10.590Z,45.66
2018-07-06T18:40:41.684Z,45.67
2018-07-06T18:43:11.734Z,45.52
2018-07-06T18:45:41.721Z,44.93
2018-07-06T18:48:11.902Z,45.65
2018-07-06T18:50:41.813Z,45.67
2018-07-06T18:53:12.056Z,45.65
2018-07-06T18:55:42.447Z,46.44
2018-07-06T18:58:13.321Z,45.65
2018-07-06T19:00:43.144Z,46.96
2018-07-06T19:03:12.996Z,45.99
2018-07-06T19:05:42.928Z,45.68
2018-07-06T19:08:12.894Z,47.27
2018-07-06T19:10:42.770Z,46.90
2018-07-06T19:13:12.586Z,48.05
2018-07-06T19:15:42.466Z,47.08
2018-07-06T19:18:12.617Z,46.87
2018-07-06T19:20:42.601Z,47.74
2018-07-06T19:23:12.828Z,48.95
2018-07-06T19:25:44.339Z,48.78
2018-07-06T19:28:15.823Z,48.78
2018-07-06T19:30:47.478Z,49.19
2018-07-06T19:33:18.292Z,49.64
2018-07-06T19:35:48.793Z,50.23
2018-07-06T19:38:20.400Z,51.03
2018-07-06T19:40:51.688Z,50.59
2018-07-06T19:43:23.152Z,49.64
2018-07-06T19:45:54.148Z,50.32
2018-07-06T19:48:25.323Z,49.47
2018-07-06T19:50:55.751Z,50.47
2018-07-06T19:53:25.964Z,50.06
2018-07-06T19:55:56.220Z,49.93
2018-07-06T19:58:27.266Z,50.16
2018-07-06T20:00:57.529Z,50.74
2018-07-06T20:03:28.209Z,50.50
2018-07-06T20:05:59.064Z,51.67
2018-07-06T20:08:29.718Z,51.20
2018-07-06T20:11:00.331Z,51.24
2018-07-06T20:13:31.127Z,51.26
2018-07-06T20:16:01.952Z,51.79
2018-07-06T20:18:33.568Z,51.77
2018-07-06T20:21:05.004Z,52.25
2018-07-06T20:23:35.927Z,52.32
2018-07-06T20:26:07.400Z,53.05
2018-07-06T20:28:38.405Z,54.37
2018-07-06T20:31:08.155Z,53.66
2018-07-06T20:33:38.482Z,54.32
2018-07-06T20:36:08.682Z,54.91
2018-07-06T20:38:39.133Z,55.40
2018-07-06T20:41:09.266Z,54.04
2018-07-06T20:43:39.819Z,53.46
2018-07-06T20:46:09.960Z,54.15
2018-07-06T20:48:40.007Z,55.02
2018-07-06T20:51:11.495Z,54.48
2018-07-06T20:53:41.372Z,54.74
2018-07-06T20:56:11.212Z,55.12
2018-07-06T20:58:41.091Z,56.25
2018-07-06T21:01:10.921Z,56.16
2018-07-06T21:03:41.315Z,56.55
2018-07-06T21:06:11.545Z,56.10
2018-07-06T21:08:43.008Z,55.89
2018-07-06T21:11:14.911Z,55.26
2018-07-06T21:13:47.132Z,55.50
2018-07-06T21:16:19.362Z,54.60
2018-07-06T21:18:53.001Z,55.07
2018-07-06T21:21:26.180Z,54.89
2018-07-06T21:23:59.630Z,55.34
2018-07-06T21:26:32.008Z,55.29
2018-07-06T21:29:03.663Z,55.67
2018-07-06T21:31:37.300Z,56.93
2018-07-06T21:34:08.707Z,56.95
2018-07-06T21:36:39.988Z,56.63
2018-07-06T21:39:10.815Z,56.78
2018-07-06T21:41:40.706Z,57.08
2018-07-06T21:44:11.524Z,57.70
2018-07-06T21:46:41.739Z,56.53
2018-07-06T21:49:11.712Z,57.48
2018-07-06T21:51:41.702Z,58.11
2018-07-06T21:54:11.592Z,60.94
2018-07-06T21:56:41.499Z,61.21
2018-07-06T21:59:11.317Z,59.27
2018-07-06T22:01:41.189Z,58.21
2018-07-06T22:04:11.065Z,58.36
2018-07-06T22:06:41.245Z,60.04
2018-07-06T22:09:11.184Z,59.63
2018-07-06T22:11:41.687Z,60.14
2018-07-06T22:14:11.771Z,61.73
2018-07-06T22:16:41.749Z,61.00
2018-07-06T22:19:11.655Z,63.76
2018-07-06T22:21:42.569Z,59.56
2018-07-06T22:24:18.828Z,58.89
2018-07-06T22:26:53.887Z,60.67
2018-07-06T22:29:24.592Z,59.59
2018-07-06T22:32:07.959Z,61.34
2018-07-06T22:34:38.445Z,58.47
2018-07-06T22:39:53.133Z,63.60
2018-07-06T22:42:24.774Z,63.77
2018-07-06T22:44:55.585Z,63.30
2018-07-06T22:47:36.342Z,62.74
2018-07-06T22:50:10.359Z,63.59
2018-07-06T22:52:48.343Z,64.16
2018-07-06T22:55:27.371Z,62.09
2018-07-06T22:58:06.162Z,64.17
2018-07-06T23:00:38.069Z,63.75
2018-07-06T23:03:08.091Z,61.41
2018-07-06T23:05:39.430Z,61.09
2018-07-06T23:08:15.922Z,60.08
2018-07-06T23:10:56.221Z,60.78
2018-07-06T23:13:34.307Z,60.67
2018-07-06T23:16:07.519Z,59.83
2018-07-06T23:18:38.173Z,59.80
2018-07-06T23:21:09.406Z,58.56
2018-07-06T23:23:42.363Z,59.57
2018-07-06T23:26:25.856Z,61.76
2018-07-06T23:28:58.165Z,60.88
2018-07-06T23:31:34.504Z,63.21
2018-07-06T23:34:07.409Z,62.84
2018-07-06T23:36:36.979Z,64.26
2018-07-06T23:39:07.731Z,62.38
2018-07-06T23:41:37.682Z,62.23
2018-07-06T23:44:09.422Z,61.34
2018-07-06T23:46:43.271Z,60.50
2018-07-06T23:49:21.377Z,60.13
2018-07-06T23:51:55.808Z,59.63
2018-07-06T23:54:27.668Z,60.07
2018-07-06T23:57:05.309Z,60.45
2018-07-06T23:59:36.983Z,60.80
